sensor_id;sensor_type;location;lat;lon;timestamp;temperature;humidity
33139;DHT22;19501;50.948;5.316;2023-03-21T00:00:35;10.90;99.90
33139;DHT22;19501;50.948;5.316;2023-03-21T00:03:01;11.00;99.90
33139;DHT22;19501;50.948;5.316;2023-03-21T00:05:29;11.00;99.90
33139;DHT22;19501;50.948;5.316;2023-03-21T00:07:55;10.90;99.90
33139;DHT22;19501;50.948;5.316;2023-03-21T00:10:21;10.80;99.90
33139;DHT22;19501;50.948;5.316;2023-03-21T00:12:47;10.80;99.90
33139;DHT22;19501;50.948;5.316;2023-03-21T00:15:20;10.90;99.90
33139;DHT22;19501;50.948;5.316;2023-03-21T00:17:45;10.90;99.90
33139;DHT22;19501;50.948;5.316;2023-03-21T00:20:15;11.00;99.90
33139;DHT22;19501;50.948;5.316;2023-03-21T00:22:42;11.10;99.90
33139;DHT22;19501;50.948;5.316;2023-03-21T00:25:08;11.00;99.90
33139;DHT22;19501;50.948;5.316;2023-03-21T00:27:35;11.00;99.90
33139;DHT22;19501;50.948;5.316;2023-03-21T00:30:02;11.00;99.90
33139;DHT22;19501;50.948;5.316;2023-03-21T00:32:28;10.80;99.90
33139;DHT22;19501;50.948;5.316;2023-03-21T00:34:53;10.90;99.90
33139;DHT22;19501;50.948;5.316;2023-03-21T00:37:19;10.90;99.90
33139;DHT22;19501;50.948;5.316;2023-03-21T00:39:46;11.00;99.90
33139;DHT22;19501;50.948;5.316;2023-03-21T00:42:14;11.00;99.90
33139;DHT22;19501;50.948;5.316;2023-03-21T00:44:40;10.80;99.90
33139;DHT22;19501;50.948;5.316;2023-03-21T00:47:08;10.80;99.90
33139;DHT22;19501;50.948;5.316;2023-03-21T00:49:33;10.80;99.90
33139;DHT22;19501;50.948;5.316;2023-03-21T00:52:00;10.70;99.90
33139;DHT22;19501;50.948;5.316;2023-03-21T00:54:26;10.70;99.90
33139;DHT22;19501;50.948;5.316;2023-03-21T00:56:52;10.70;99.90
33139;DHT22;19501;50.948;5.316;2023-03-21T00:59:18;10.70;99.90
33139;DHT22;19501;50.948;5.316;2023-03-21T01:01:44;10.70;99.90
33139;DHT22;19501;50.948;5.316;2023-03-21T01:04:12;10.70;99.90
33139;DHT22;19501;50.948;5.316;2023-03-21T01:06:40;10.70;99.90
33139;DHT22;19501;50.948;5.316;2023-03-21T01:09:19;10.60;99.90
33139;DHT22;19501;50.948;5.316;2023-03-21T01:11:45;10.60;99.90
33139;DHT22;19501;50.948;5.316;2023-03-21T01:14:13;10.70;99.90
33139;DHT22;19501;50.948;5.316;2023-03-21T01:16:39;10.70;99.90
33139;DHT22;19501;50.948;5.316;2023-03-21T01:19:06;10.70;99.90
33139;DHT22;19501;50.948;5.316;2023-03-21T01:21:32;10.70;99.90
33139;DHT22;19501;50.948;5.316;2023-03-21T01:23:58;10.80;99.90
33139;DHT22;19501;50.948;5.316;2023-03-21T01:26:25;10.80;99.90
33139;DHT22;19501;50.948;5.316;2023-03-21T01:28:50;10.90;99.90
33139;DHT22;19501;50.948;5.316;2023-03-21T01:31:18;10.90;99.90
33139;DHT22;19501;50.948;5.316;2023-03-21T01:33:45;10.70;99.90
33139;DHT22;19501;50.948;5.316;2023-03-21T01:36:22;10.80;99.90
33139;DHT22;19501;50.948;5.316;2023-03-21T01:38:48;10.80;99.90
33139;DHT22;19501;50.948;5.316;2023-03-21T01:41:24;10.80;99.90
33139;DHT22;19501;50.948;5.316;2023-03-21T01:43:50;10.80;99.90
33139;DHT22;19501;50.948;5.316;2023-03-21T01:49:10;10.70;99.90
33139;DHT22;19501;50.948;5.316;2023-03-21T01:52:08;10.80;99.90
33139;DHT22;19501;50.948;5.316;2023-03-21T01:54:37;10.80;99.90
33139;DHT22;19501;50.948;5.316;2023-03-21T01:57:07;10.80;99.90
33139;DHT22;19501;50.948;5.316;2023-03-21T02:02:02;11.10;99.90
33139;DHT22;19501;50.948;5.316;2023-03-21T02:04:33;11.10;99.90
33139;DHT22;19501;50.948;5.316;2023-03-21T02:07:12;11.20;99.90
33139;DHT22;19501;50.948;5.316;2023-03-21T02:09:41;11.20;99.90
33139;DHT22;19501;50.948;5.316;2023-03-21T02:12:08;11.20;99.90
33139;DHT22;19501;50.948;5.316;2023-03-21T02:14:36;11.20;99.90
33139;DHT22;19501;50.948;5.316;2023-03-21T02:17:12;11.10;99.90
33139;DHT22;19501;50.948;5.316;2023-03-21T02:28:01;11.00;99.90
33139;DHT22;19501;50.948;5.316;2023-03-21T02:33:11;10.90;99.90
33139;DHT22;19501;50.948;5.316;2023-03-21T02:35:50;11.00;99.90
33139;DHT22;19501;50.948;5.316;2023-03-21T02:38:28;10.90;99.90
33139;DHT22;19501;50.948;5.316;2023-03-21T02:43:42;10.80;99.90
33139;DHT22;19501;50.948;5.316;2023-03-21T02:46:11;10.80;99.90
33139;DHT22;19501;50.948;5.316;2023-03-21T02:48:46;10.80;99.90
33139;DHT22;19501;50.948;5.316;2023-03-21T02:51:16;10.70;99.90
33139;DHT22;19501;50.948;5.316;2023-03-21T02:53:52;10.60;99.90
33139;DHT22;19501;50.948;5.316;2023-03-21T02:56:20;10.60;99.90
33139;DHT22;19501;50.948;5.316;2023-03-21T02:58:47;10.70;99.90
33139;DHT22;19501;50.948;5.316;2023-03-21T03:01:13;10.80;99.90
33139;DHT22;19501;50.948;5.316;2023-03-21T03:03:39;10.60;99.90
33139;DHT22;19501;50.948;5.316;2023-03-21T03:06:29;10.60;99.90
33139;DHT22;19501;50.948;5.316;2023-03-21T03:09:38;10.60;99.90
33139;DHT22;19501;50.948;5.316;2023-03-21T03:20:17;10.70;99.90
33139;DHT22;19501;50.948;5.316;2023-03-21T03:22:51;10.70;99.90
33139;DHT22;19501;50.948;5.316;2023-03-21T03:25:23;10.60;99.90
33139;DHT22;19501;50.948;5.316;2023-03-21T03:27:52;10.60;99.90
33139;DHT22;19501;50.948;5.316;2023-03-21T03:30:19;10.60;99.90
33139;DHT22;19501;50.948;5.316;2023-03-21T03:32:53;10.60;99.90
33139;DHT22;19501;50.948;5.316;2023-03-21T03:35:20;10.70;99.90
33139;DHT22;19501;50.948;5.316;2023-03-21T03:37:50;10.60;99.90
33139;DHT22;19501;50.948;5.316;2023-03-21T03:40:23;10.80;99.90
33139;DHT22;19501;50.948;5.316;2023-03-21T03:42:55;10.60;99.90
33139;DHT22;19501;50.948;5.316;2023-03-21T03:45:29;10.60;99.90
33139;DHT22;19501;50.948;5.316;2023-03-21T03:50:55;10.50;99.90
33139;DHT22;19501;50.948;5.316;2023-03-21T03:53:35;10.50;99.90
33139;DHT22;19501;50.948;5.316;2023-03-21T03:56:03;10.50;99.90
33139;DHT22;19501;50.948;5.316;2023-03-21T03:58:31;10.60;99.90
33139;DHT22;19501;50.948;5.316;2023-03-21T04:00:57;10.70;99.90
33139;DHT22;19501;50.948;5.316;2023-03-21T04:03:23;10.70;99.90
33139;DHT22;19501;50.948;5.316;2023-03-21T04:05:51;10.80;99.90
33139;DHT22;19501;50.948;5.316;2023-03-21T04:08:18;10.80;99.90
33139;DHT22;19501;50.948;5.316;2023-03-21T04:10:44;10.60;99.90
33139;DHT22;19501;50.948;5.316;2023-03-21T04:13:10;10.60;99.90
33139;DHT22;19501;50.948;5.316;2023-03-21T04:15:36;10.70;99.90
33139;DHT22;19501;50.948;5.316;2023-03-21T04:18:02;10.80;99.90
33139;DHT22;19501;50.948;5.316;2023-03-21T04:20:28;10.90;99.90
33139;DHT22;19501;50.948;5.316;2023-03-21T04:22:53;11.00;99.90
33139;DHT22;19501;50.948;5.316;2023-03-21T04:25:21;11.00;99.90
33139;DHT22;19501;50.948;5.316;2023-03-21T04:27:46;11.10;99.90
33139;DHT22;19501;50.948;5.316;2023-03-21T04:30:13;11.10;99.90
33139;DHT22;19501;50.948;5.316;2023-03-21T04:32:39;11.00;99.90
33139;DHT22;19501;50.948;5.316;2023-03-21T04:35:09;11.10;99.90
33139;DHT22;19501;50.948;5.316;2023-03-21T04:37:35;11.10;99.90
33139;DHT22;19501;50.948;5.316;2023-03-21T04:40:04;11.20;99.90
33139;DHT22;19501;50.948;5.316;2023-03-21T04:42:34;11.30;99.90
33139;DHT22;19501;50.948;5.316;2023-03-21T04:45:00;11.30;99.90
33139;DHT22;19501;50.948;5.316;2023-03-21T04:47:26;11.20;99.90
33139;DHT22;19501;50.948;5.316;2023-03-21T04:49:55;11.20;99.90
33139;DHT22;19501;50.948;5.316;2023-03-21T04:52:22;11.10;99.90
33139;DHT22;19501;50.948;5.316;2023-03-21T04:54:47;11.10;99.90
33139;DHT22;19501;50.948;5.316;2023-03-21T04:57:13;11.10;99.90
33139;DHT22;19501;50.948;5.316;2023-03-21T04:59:39;11.10;99.90
33139;DHT22;19501;50.948;5.316;2023-03-21T05:02:04;11.10;99.90
33139;DHT22;19501;50.948;5.316;2023-03-21T05:04:31;11.10;99.90
33139;DHT22;19501;50.948;5.316;2023-03-21T05:06:57;11.10;99.90
33139;DHT22;19501;50.948;5.316;2023-03-21T05:09:23;11.20;99.90
33139;DHT22;19501;50.948;5.316;2023-03-21T05:11:52;11.30;99.90
33139;DHT22;19501;50.948;5.316;2023-03-21T05:14:20;11.20;99.90
33139;DHT22;19501;50.948;5.316;2023-03-21T05:16:47;11.00;99.90
33139;DHT22;19501;50.948;5.316;2023-03-21T05:19:22;10.80;99.90
33139;DHT22;19501;50.948;5.316;2023-03-21T05:21:49;10.80;99.90
33139;DHT22;19501;50.948;5.316;2023-03-21T05:24:17;10.90;99.90
33139;DHT22;19501;50.948;5.316;2023-03-21T05:26:44;10.80;99.90
33139;DHT22;19501;50.948;5.316;2023-03-21T05:29:15;10.90;99.90
33139;DHT22;19501;50.948;5.316;2023-03-21T05:31:44;10.80;99.90
33139;DHT22;19501;50.948;5.316;2023-03-21T05:34:11;10.80;99.90
33139;DHT22;19501;50.948;5.316;2023-03-21T05:36:37;10.70;99.90
33139;DHT22;19501;50.948;5.316;2023-03-21T05:39:03;10.80;99.90
33139;DHT22;19501;50.948;5.316;2023-03-21T05:41:29;10.90;99.90
33139;DHT22;19501;50.948;5.316;2023-03-21T05:43:54;10.90;99.90
33139;DHT22;19501;50.948;5.316;2023-03-21T05:46:20;11.00;99.90
33139;DHT22;19501;50.948;5.316;2023-03-21T05:48:46;11.00;99.90
33139;DHT22;19501;50.948;5.316;2023-03-21T05:51:11;11.00;99.90
33139;DHT22;19501;50.948;5.316;2023-03-21T05:53:37;10.80;99.90
33139;DHT22;19501;50.948;5.316;2023-03-21T05:56:03;10.80;99.90
33139;DHT22;19501;50.948;5.316;2023-03-21T05:58:29;10.80;99.90
33139;DHT22;19501;50.948;5.316;2023-03-21T06:00:55;10.80;99.90
33139;DHT22;19501;50.948;5.316;2023-03-21T06:03:20;10.80;99.90
33139;DHT22;19501;50.948;5.316;2023-03-21T06:05:46;10.90;99.90
33139;DHT22;19501;50.948;5.316;2023-03-21T06:08:12;10.80;99.90
33139;DHT22;19501;50.948;5.316;2023-03-21T06:10:38;10.90;99.90
33139;DHT22;19501;50.948;5.316;2023-03-21T06:13:03;10.90;99.90
33139;DHT22;19501;50.948;5.316;2023-03-21T06:15:32;10.80;99.90
33139;DHT22;19501;50.948;5.316;2023-03-21T06:17:58;10.80;99.90
33139;DHT22;19501;50.948;5.316;2023-03-21T06:20:23;10.90;99.90
33139;DHT22;19501;50.948;5.316;2023-03-21T06:22:49;10.90;99.90
33139;DHT22;19501;50.948;5.316;2023-03-21T06:25:15;10.90;99.90
33139;DHT22;19501;50.948;5.316;2023-03-21T06:27:43;10.90;99.90
33139;DHT22;19501;50.948;5.316;2023-03-21T06:30:11;10.80;99.90
33139;DHT22;19501;50.948;5.316;2023-03-21T06:32:37;10.70;99.90
33139;DHT22;19501;50.948;5.316;2023-03-21T06:35:03;10.70;99.90
33139;DHT22;19501;50.948;5.316;2023-03-21T06:37:29;10.80;99.90
33139;DHT22;19501;50.948;5.316;2023-03-21T06:39:55;10.80;99.90
33139;DHT22;19501;50.948;5.316;2023-03-21T06:42:21;10.80;99.90
33139;DHT22;19501;50.948;5.316;2023-03-21T06:44:46;10.80;99.90
33139;DHT22;19501;50.948;5.316;2023-03-21T06:47:12;10.90;99.90
33139;DHT22;19501;50.948;5.316;2023-03-21T06:49:38;10.80;99.90
33139;DHT22;19501;50.948;5.316;2023-03-21T06:52:03;10.80;99.90
33139;DHT22;19501;50.948;5.316;2023-03-21T06:54:29;10.70;99.90
33139;DHT22;19501;50.948;5.316;2023-03-21T06:56:55;10.70;99.90
33139;DHT22;19501;50.948;5.316;2023-03-21T06:59:21;10.80;99.90
33139;DHT22;19501;50.948;5.316;2023-03-21T07:01:46;10.80;99.90
33139;DHT22;19501;50.948;5.316;2023-03-21T07:04:13;10.80;99.90
33139;DHT22;19501;50.948;5.316;2023-03-21T07:06:38;10.70;99.90
33139;DHT22;19501;50.948;5.316;2023-03-21T07:09:07;10.70;99.90
33139;DHT22;19501;50.948;5.316;2023-03-21T07:11:34;10.60;99.90
33139;DHT22;19501;50.948;5.316;2023-03-21T07:14:00;10.60;99.90
33139;DHT22;19501;50.948;5.316;2023-03-21T07:16:26;10.50;99.90
33139;DHT22;19501;50.948;5.316;2023-03-21T07:18:51;10.50;99.90
33139;DHT22;19501;50.948;5.316;2023-03-21T07:21:17;10.50;99.90
33139;DHT22;19501;50.948;5.316;2023-03-21T07:23:43;10.50;99.90
33139;DHT22;19501;50.948;5.316;2023-03-21T07:26:09;10.50;99.90
33139;DHT22;19501;50.948;5.316;2023-03-21T07:28:37;10.50;99.90
33139;DHT22;19501;50.948;5.316;2023-03-21T07:31:04;10.50;99.90
33139;DHT22;19501;50.948;5.316;2023-03-21T07:33:33;10.50;99.90
33139;DHT22;19501;50.948;5.316;2023-03-21T07:36:01;10.30;99.90
33139;DHT22;19501;50.948;5.316;2023-03-21T07:38:26;10.50;99.90
33139;DHT22;19501;50.948;5.316;2023-03-21T07:40:52;10.50;99.90
33139;DHT22;19501;50.948;5.316;2023-03-21T07:43:19;10.50;99.90
33139;DHT22;19501;50.948;5.316;2023-03-21T07:45:45;10.50;99.90
33139;DHT22;19501;50.948;5.316;2023-03-21T07:48:11;10.50;99.90
33139;DHT22;19501;50.948;5.316;2023-03-21T07:50:38;10.40;99.90
33139;DHT22;19501;50.948;5.316;2023-03-21T07:53:04;10.40;99.90
33139;DHT22;19501;50.948;5.316;2023-03-21T07:55:30;10.40;99.90
33139;DHT22;19501;50.948;5.316;2023-03-21T07:57:59;10.40;99.90
33139;DHT22;19501;50.948;5.316;2023-03-21T08:00:25;10.40;99.90
33139;DHT22;19501;50.948;5.316;2023-03-21T08:02:52;10.30;99.90
33139;DHT22;19501;50.948;5.316;2023-03-21T08:05:51;10.30;99.90
33139;DHT22;19501;50.948;5.316;2023-03-21T08:08:19;10.30;99.90
33139;DHT22;19501;50.948;5.316;2023-03-21T08:10:45;10.30;99.90
33139;DHT22;19501;50.948;5.316;2023-03-21T08:13:11;10.30;99.90
33139;DHT22;19501;50.948;5.316;2023-03-21T08:15:39;10.40;99.90
33139;DHT22;19501;50.948;5.316;2023-03-21T08:18:07;10.30;99.90
33139;DHT22;19501;50.948;5.316;2023-03-21T08:20:32;10.40;99.90
33139;DHT22;19501;50.948;5.316;2023-03-21T08:22:58;10.40;99.90
33139;DHT22;19501;50.948;5.316;2023-03-21T08:25:24;10.40;99.90
33139;DHT22;19501;50.948;5.316;2023-03-21T08:27:50;10.30;99.90
33139;DHT22;19501;50.948;5.316;2023-03-21T08:30:19;10.30;99.90
33139;DHT22;19501;50.948;5.316;2023-03-21T08:32:45;10.20;99.90
33139;DHT22;19501;50.948;5.316;2023-03-21T08:35:15;10.30;99.90
33139;DHT22;19501;50.948;5.316;2023-03-21T08:37:42;10.40;99.90
33139;DHT22;19501;50.948;5.316;2023-03-21T08:40:11;10.40;99.90
33139;DHT22;19501;50.948;5.316;2023-03-21T08:42:38;10.50;99.90
33139;DHT22;19501;50.948;5.316;2023-03-21T08:45:05;10.50;99.90
33139;DHT22;19501;50.948;5.316;2023-03-21T08:47:32;10.60;99.90
33139;DHT22;19501;50.948;5.316;2023-03-21T08:49:57;10.70;99.90
33139;DHT22;19501;50.948;5.316;2023-03-21T08:52:24;10.70;99.90
33139;DHT22;19501;50.948;5.316;2023-03-21T08:54:50;10.80;99.90
33139;DHT22;19501;50.948;5.316;2023-03-21T08:57:15;11.00;99.90
33139;DHT22;19501;50.948;5.316;2023-03-21T08:59:41;11.10;99.90
33139;DHT22;19501;50.948;5.316;2023-03-21T09:02:08;11.20;99.90
33139;DHT22;19501;50.948;5.316;2023-03-21T09:04:34;11.30;99.90
33139;DHT22;19501;50.948;5.316;2023-03-21T09:07:00;11.40;99.90
33139;DHT22;19501;50.948;5.316;2023-03-21T09:09:29;11.50;99.90
33139;DHT22;19501;50.948;5.316;2023-03-21T09:11:54;11.50;99.90
33139;DHT22;19501;50.948;5.316;2023-03-21T09:14:20;11.60;99.90
33139;DHT22;19501;50.948;5.316;2023-03-21T09:16:48;11.60;99.90
33139;DHT22;19501;50.948;5.316;2023-03-21T09:19:14;11.80;99.90
33139;DHT22;19501;50.948;5.316;2023-03-21T09:21:40;11.80;99.90
33139;DHT22;19501;50.948;5.316;2023-03-21T09:24:06;11.80;99.90
33139;DHT22;19501;50.948;5.316;2023-03-21T09:26:32;11.80;99.90
33139;DHT22;19501;50.948;5.316;2023-03-21T09:29:01;11.90;99.90
33139;DHT22;19501;50.948;5.316;2023-03-21T09:31:28;11.90;99.90
33139;DHT22;19501;50.948;5.316;2023-03-21T09:33:54;11.90;99.90
33139;DHT22;19501;50.948;5.316;2023-03-21T09:36:25;11.90;99.90
33139;DHT22;19501;50.948;5.316;2023-03-21T09:38:52;11.90;99.90
33139;DHT22;19501;50.948;5.316;2023-03-21T09:44:25;12.10;99.90
33139;DHT22;19501;50.948;5.316;2023-03-21T09:47:21;12.10;99.90
33139;DHT22;19501;50.948;5.316;2023-03-21T09:53:21;11.90;99.90
33139;DHT22;19501;50.948;5.316;2023-03-21T09:55:48;11.80;99.90
33139;DHT22;19501;50.948;5.316;2023-03-21T09:58:33;11.80;99.90
33139;DHT22;19501;50.948;5.316;2023-03-21T10:01:29;11.90;99.90
33139;DHT22;19501;50.948;5.316;2023-03-21T10:04:01;12.00;99.90
33139;DHT22;19501;50.948;5.316;2023-03-21T10:06:29;12.20;99.90
33139;DHT22;19501;50.948;5.316;2023-03-21T10:09:00;12.20;99.90
33139;DHT22;19501;50.948;5.316;2023-03-21T10:11:40;12.10;99.90
33139;DHT22;19501;50.948;5.316;2023-03-21T10:14:29;12.10;99.90
33139;DHT22;19501;50.948;5.316;2023-03-21T10:17:05;12.20;99.90
33139;DHT22;19501;50.948;5.316;2023-03-21T10:19:31;12.20;99.90
33139;DHT22;19501;50.948;5.316;2023-03-21T10:21:57;12.20;99.90
33139;DHT22;19501;50.948;5.316;2023-03-21T10:24:27;12.40;99.90
33139;DHT22;19501;50.948;5.316;2023-03-21T10:26:56;12.40;99.90
33139;DHT22;19501;50.948;5.316;2023-03-21T10:29:29;12.30;99.90
33139;DHT22;19501;50.948;5.316;2023-03-21T10:31:56;12.40;99.90
33139;DHT22;19501;50.948;5.316;2023-03-21T10:34:58;12.40;99.90
33139;DHT22;19501;50.948;5.316;2023-03-21T10:37:16;12.50;99.90
33139;DHT22;19501;50.948;5.316;2023-03-21T10:39:45;12.60;99.90
33139;DHT22;19501;50.948;5.316;2023-03-21T10:42:31;12.80;99.90
33139;DHT22;19501;50.948;5.316;2023-03-21T10:44:58;12.90;99.90
33139;DHT22;19501;50.948;5.316;2023-03-21T10:47:26;12.90;99.90
33139;DHT22;19501;50.948;5.316;2023-03-21T10:49:52;12.80;99.90
33139;DHT22;19501;50.948;5.316;2023-03-21T10:52:21;13.10;99.90
33139;DHT22;19501;50.948;5.316;2023-03-21T10:54:48;13.00;99.90
33139;DHT22;19501;50.948;5.316;2023-03-21T10:57:22;13.00;99.90
33139;DHT22;19501;50.948;5.316;2023-03-21T10:59:54;13.20;99.90
33139;DHT22;19501;50.948;5.316;2023-03-21T11:02:36;13.30;99.90
33139;DHT22;19501;50.948;5.316;2023-03-21T11:05:33;13.40;99.90
33139;DHT22;19501;50.948;5.316;2023-03-21T11:08:10;13.50;99.90
33139;DHT22;19501;50.948;5.316;2023-03-21T11:13:36;13.50;99.90
33139;DHT22;19501;50.948;5.316;2023-03-21T11:16:06;13.40;99.90
33139;DHT22;19501;50.948;5.316;2023-03-21T11:18:49;13.40;99.90
33139;DHT22;19501;50.948;5.316;2023-03-21T11:21:16;13.40;99.90
33139;DHT22;19501;50.948;5.316;2023-03-21T11:23:47;13.50;99.90
33139;DHT22;19501;50.948;5.316;2023-03-21T11:26:30;13.50;99.90
33139;DHT22;19501;50.948;5.316;2023-03-21T11:28:57;13.80;99.90
33139;DHT22;19501;50.948;5.316;2023-03-21T11:31:37;14.00;99.90
33139;DHT22;19501;50.948;5.316;2023-03-21T11:34:06;13.70;99.90
33139;DHT22;19501;50.948;5.316;2023-03-21T11:36:34;13.90;99.90
33139;DHT22;19501;50.948;5.316;2023-03-21T11:39:23;13.80;99.90
33139;DHT22;19501;50.948;5.316;2023-03-21T11:41:54;13.90;99.90
33139;DHT22;19501;50.948;5.316;2023-03-21T11:44:33;14.00;99.90
33139;DHT22;19501;50.948;5.316;2023-03-21T11:46:59;14.10;99.90
33139;DHT22;19501;50.948;5.316;2023-03-21T11:49:26;14.20;99.90
33139;DHT22;19501;50.948;5.316;2023-03-21T11:55:04;14.10;99.90
33139;DHT22;19501;50.948;5.316;2023-03-21T12:00:51;13.80;99.90
33139;DHT22;19501;50.948;5.316;2023-03-21T12:03:43;13.80;99.90
33139;DHT22;19501;50.948;5.316;2023-03-21T12:06:21;13.90;99.90
33139;DHT22;19501;50.948;5.316;2023-03-21T12:09:37;14.20;99.90
33139;DHT22;19501;50.948;5.316;2023-03-21T12:15:17;14.70;99.90
33139;DHT22;19501;50.948;5.316;2023-03-21T12:20:52;15.10;99.90
33139;DHT22;19501;50.948;5.316;2023-03-21T12:31:40;15.30;99.90
33139;DHT22;19501;50.948;5.316;2023-03-21T12:37:24;15.50;99.90
33139;DHT22;19501;50.948;5.316;2023-03-21T12:39:54;16.40;99.90
33139;DHT22;19501;50.948;5.316;2023-03-21T12:42:49;16.30;99.90
33139;DHT22;19501;50.948;5.316;2023-03-21T12:45:19;16.10;99.90
33139;DHT22;19501;50.948;5.316;2023-03-21T12:47:52;15.60;99.90
33139;DHT22;19501;50.948;5.316;2023-03-21T12:50:33;15.90;99.90
33139;DHT22;19501;50.948;5.316;2023-03-21T12:53:33;15.90;99.90
33139;DHT22;19501;50.948;5.316;2023-03-21T12:56:04;15.70;99.90
33139;DHT22;19501;50.948;5.316;2023-03-21T12:58:44;15.60;99.90
33139;DHT22;19501;50.948;5.316;2023-03-21T13:01:10;15.30;99.90
33139;DHT22;19501;50.948;5.316;2023-03-21T13:03:45;15.00;99.90
33139;DHT22;19501;50.948;5.316;2023-03-21T13:06:16;15.00;99.90
33139;DHT22;19501;50.948;5.316;2023-03-21T13:08:54;15.00;99.90
33139;DHT22;19501;50.948;5.316;2023-03-21T13:11:23;15.50;99.90
33139;DHT22;19501;50.948;5.316;2023-03-21T13:14:16;15.70;99.90
33139;DHT22;19501;50.948;5.316;2023-03-21T13:17:35;15.70;99.90
33139;DHT22;19501;50.948;5.316;2023-03-21T13:20:24;16.10;99.90
33139;DHT22;19501;50.948;5.316;2023-03-21T13:22:32;15.70;99.90
33139;DHT22;19501;50.948;5.316;2023-03-21T13:25:19;15.60;99.90
33139;DHT22;19501;50.948;5.316;2023-03-21T13:28:00;15.20;99.90
33139;DHT22;19501;50.948;5.316;2023-03-21T13:30:29;15.20;99.90
33139;DHT22;19501;50.948;5.316;2023-03-21T13:33:11;15.20;99.90
33139;DHT22;19501;50.948;5.316;2023-03-21T13:35:42;15.20;99.90
33139;DHT22;19501;50.948;5.316;2023-03-21T13:51:09;15.50;99.90
33139;DHT22;19501;50.948;5.316;2023-03-21T13:53:39;15.60;99.90
33139;DHT22;19501;50.948;5.316;2023-03-21T14:03:37;15.70;99.90
33139;DHT22;19501;50.948;5.316;2023-03-21T14:06:04;15.70;99.90
33139;DHT22;19501;50.948;5.316;2023-03-21T14:08:34;15.50;99.90
33139;DHT22;19501;50.948;5.316;2023-03-21T14:11:05;15.70;99.90
33139;DHT22;19501;50.948;5.316;2023-03-21T14:13:31;16.00;99.90
33139;DHT22;19501;50.948;5.316;2023-03-21T14:16:09;16.20;99.90
33139;DHT22;19501;50.948;5.316;2023-03-21T14:18:43;16.30;99.90
33139;DHT22;19501;50.948;5.316;2023-03-21T14:21:20;16.70;99.90
33139;DHT22;19501;50.948;5.316;2023-03-21T14:24:01;16.60;99.90
33139;DHT22;19501;50.948;5.316;2023-03-21T14:26:30;16.50;99.90
33139;DHT22;19501;50.948;5.316;2023-03-21T14:28:57;16.50;99.90
33139;DHT22;19501;50.948;5.316;2023-03-21T14:31:23;16.60;99.90
33139;DHT22;19501;50.948;5.316;2023-03-21T14:33:54;16.70;99.90
33139;DHT22;19501;50.948;5.316;2023-03-21T14:36:27;16.60;99.90
33139;DHT22;19501;50.948;5.316;2023-03-21T14:41:28;16.50;99.90
33139;DHT22;19501;50.948;5.316;2023-03-21T14:46:51;16.50;99.90
33139;DHT22;19501;50.948;5.316;2023-03-21T14:49:27;16.70;99.90
33139;DHT22;19501;50.948;5.316;2023-03-21T14:51:54;16.70;99.90
33139;DHT22;19501;50.948;5.316;2023-03-21T14:54:20;16.40;99.90
33139;DHT22;19501;50.948;5.316;2023-03-21T14:56:50;16.40;99.90
33139;DHT22;19501;50.948;5.316;2023-03-21T14:59:20;16.30;99.90
33139;DHT22;19501;50.948;5.316;2023-03-21T15:01:48;16.30;99.90
33139;DHT22;19501;50.948;5.316;2023-03-21T15:04:16;16.20;99.90
33139;DHT22;19501;50.948;5.316;2023-03-21T15:07:21;16.30;99.90
33139;DHT22;19501;50.948;5.316;2023-03-21T15:09:52;16.20;99.90
33139;DHT22;19501;50.948;5.316;2023-03-21T15:12:18;16.00;99.90
33139;DHT22;19501;50.948;5.316;2023-03-21T15:14:44;15.90;99.90
33139;DHT22;19501;50.948;5.316;2023-03-21T15:17:10;15.90;99.90
33139;DHT22;19501;50.948;5.316;2023-03-21T15:19:37;15.70;99.90
33139;DHT22;19501;50.948;5.316;2023-03-21T15:22:18;15.70;99.90
33139;DHT22;19501;50.948;5.316;2023-03-21T15:24:50;15.70;99.90
33139;DHT22;19501;50.948;5.316;2023-03-21T15:27:18;15.60;99.90
33139;DHT22;19501;50.948;5.316;2023-03-21T15:29:45;15.60;99.90
33139;DHT22;19501;50.948;5.316;2023-03-21T15:32:16;15.60;99.90
33139;DHT22;19501;50.948;5.316;2023-03-21T15:34:45;15.50;99.90
33139;DHT22;19501;50.948;5.316;2023-03-21T15:37:37;15.60;99.90
33139;DHT22;19501;50.948;5.316;2023-03-21T15:40:18;15.70;99.90
33139;DHT22;19501;50.948;5.316;2023-03-21T15:42:44;15.80;99.90
33139;DHT22;19501;50.948;5.316;2023-03-21T15:45:21;15.80;99.90
33139;DHT22;19501;50.948;5.316;2023-03-21T15:52:50;15.90;99.90
33139;DHT22;19501;50.948;5.316;2023-03-21T15:55:22;15.90;99.90
33139;DHT22;19501;50.948;5.316;2023-03-21T15:57:51;15.70;99.90
33139;DHT22;19501;50.948;5.316;2023-03-21T16:00:49;15.60;99.90
33139;DHT22;19501;50.948;5.316;2023-03-21T16:03:20;15.50;99.90
33139;DHT22;19501;50.948;5.316;2023-03-21T16:08:44;15.50;99.90
33139;DHT22;19501;50.948;5.316;2023-03-21T16:13:49;15.50;99.90
33139;DHT22;19501;50.948;5.316;2023-03-21T16:16:24;15.40;99.90
33139;DHT22;19501;50.948;5.316;2023-03-21T16:18:50;15.40;99.90
33139;DHT22;19501;50.948;5.316;2023-03-21T16:21:18;15.30;99.90
33139;DHT22;19501;50.948;5.316;2023-03-21T16:23:45;15.30;99.90
33139;DHT22;19501;50.948;5.316;2023-03-21T16:26:14;15.20;99.90
33139;DHT22;19501;50.948;5.316;2023-03-21T16:28:41;15.20;99.90
33139;DHT22;19501;50.948;5.316;2023-03-21T16:31:15;15.10;99.90
33139;DHT22;19501;50.948;5.316;2023-03-21T16:33:42;15.10;99.90
33139;DHT22;19501;50.948;5.316;2023-03-21T16:36:16;14.90;99.90
33139;DHT22;19501;50.948;5.316;2023-03-21T16:38:45;14.80;99.90
33139;DHT22;19501;50.948;5.316;2023-03-21T16:41:12;14.70;99.90
33139;DHT22;19501;50.948;5.316;2023-03-21T16:43:39;14.70;99.90
33139;DHT22;19501;50.948;5.316;2023-03-21T16:46:17;14.50;99.90
33139;DHT22;19501;50.948;5.316;2023-03-21T16:48:45;14.50;99.90
33139;DHT22;19501;50.948;5.316;2023-03-21T16:51:16;14.50;99.90
33139;DHT22;19501;50.948;5.316;2023-03-21T16:53:43;14.50;99.90
33139;DHT22;19501;50.948;5.316;2023-03-21T16:56:20;14.60;99.90
33139;DHT22;19501;50.948;5.316;2023-03-21T16:58:47;14.50;99.90
33139;DHT22;19501;50.948;5.316;2023-03-21T17:01:14;14.60;99.90
33139;DHT22;19501;50.948;5.316;2023-03-21T17:03:40;14.50;99.90
33139;DHT22;19501;50.948;5.316;2023-03-21T17:06:08;14.70;99.90
33139;DHT22;19501;50.948;5.316;2023-03-21T17:08:36;14.70;99.90
33139;DHT22;19501;50.948;5.316;2023-03-21T17:11:01;14.80;99.90
33139;DHT22;19501;50.948;5.316;2023-03-21T17:13:30;14.80;99.90
33139;DHT22;19501;50.948;5.316;2023-03-21T17:15:56;14.80;99.90
33139;DHT22;19501;50.948;5.316;2023-03-21T17:18:22;14.70;99.90
33139;DHT22;19501;50.948;5.316;2023-03-21T17:20:47;14.70;99.90
33139;DHT22;19501;50.948;5.316;2023-03-21T17:23:13;14.50;99.90
33139;DHT22;19501;50.948;5.316;2023-03-21T17:25:39;14.50;99.90
33139;DHT22;19501;50.948;5.316;2023-03-21T17:28:04;14.30;99.90